Clemons, New York
Current Conditions -  °F | °C
As of 8:40 PM on Thursday 27 Nov 2014 (Local Time) from KGFL Reporting Station
Light Snow Light Snow  
Wind Chill: 23°   Ceiling: 2000
Heat Index: 28°   Visibility: 1.5mi
Dew Point: 24°   Wind: 5mph
Humidity: 85%   Direction: 30°NNE
Pressure: 30.04"   Gusts: NA
Location:  43.64°N, 73.45°W
Report Text: KGFL 280140Z AUTO 03004KT 1 1/2SM -SN BR OVC020 M02/M04 A3004 RMK AO2 P0000 T10221044
Loading
Personal Weather Stations






























Interactive Weather Map New forecast layout! Learn more

10-Day Weather Forecast

Advertisements
Track Severe Weather on mobile